sensor_id;sensor_type;location;lat;lon;timestamp;temperature;humidity
21255;DHT22;10785;50.674;17.954;2023-05-23T00:02:40;14.10;98.50
21255;DHT22;10785;50.674;17.954;2023-05-23T00:05:09;14.10;98.70
21255;DHT22;10785;50.674;17.954;2023-05-23T00:07:38;14.10;98.80
21255;DHT22;10785;50.674;17.954;2023-05-23T00:10:07;14.10;99.00
21255;DHT22;10785;50.674;17.954;2023-05-23T00:12:35;14.10;99.30
21255;DHT22;10785;50.674;17.954;2023-05-23T00:15:06;14.00;99.90
21255;DHT22;10785;50.674;17.954;2023-05-23T00:17:36;13.90;99.90
21255;DHT22;10785;50.674;17.954;2023-05-23T00:20:07;13.90;99.90
21255;DHT22;10785;50.674;17.954;2023-05-23T00:22:38;13.90;99.90
21255;DHT22;10785;50.674;17.954;2023-05-23T00:25:09;13.80;99.90
21255;DHT22;10785;50.674;17.954;2023-05-23T00:27:38;13.80;99.90
21255;DHT22;10785;50.674;17.954;2023-05-23T00:30:07;13.70;99.90
21255;DHT22;10785;50.674;17.954;2023-05-23T00:32:36;13.70;99.90
21255;DHT22;10785;50.674;17.954;2023-05-23T00:35:07;13.70;99.90
21255;DHT22;10785;50.674;17.954;2023-05-23T00:37:36;13.60;99.90
21255;DHT22;10785;50.674;17.954;2023-05-23T00:40:06;13.60;99.90
21255;DHT22;10785;50.674;17.954;2023-05-23T00:42:35;13.60;99.90
21255;DHT22;10785;50.674;17.954;2023-05-23T00:45:05;13.60;99.90
21255;DHT22;10785;50.674;17.954;2023-05-23T00:47:33;13.60;99.90
21255;DHT22;10785;50.674;17.954;2023-05-23T00:50:03;13.50;99.90
21255;DHT22;10785;50.674;17.954;2023-05-23T00:52:33;13.50;99.90
21255;DHT22;10785;50.674;17.954;2023-05-23T00:55:03;13.50;99.90
21255;DHT22;10785;50.674;17.954;2023-05-23T00:57:32;13.40;99.90
21255;DHT22;10785;50.674;17.954;2023-05-23T01:00:01;13.30;99.90
21255;DHT22;10785;50.674;17.954;2023-05-23T01:02:34;13.30;99.90
21255;DHT22;10785;50.674;17.954;2023-05-23T01:05:04;13.20;99.90
21255;DHT22;10785;50.674;17.954;2023-05-23T01:07:34;13.20;99.90
21255;DHT22;10785;50.674;17.954;2023-05-23T01:10:04;13.30;99.90
21255;DHT22;10785;50.674;17.954;2023-05-23T01:12:43;13.30;99.90
21255;DHT22;10785;50.674;17.954;2023-05-23T01:15:15;13.30;99.90
21255;DHT22;10785;50.674;17.954;2023-05-23T01:17:49;13.20;99.90
21255;DHT22;10785;50.674;17.954;2023-05-23T01:20:21;13.20;99.90
21255;DHT22;10785;50.674;17.954;2023-05-23T01:26:06;13.20;99.90
21255;DHT22;10785;50.674;17.954;2023-05-23T01:28:45;13.10;99.90
21255;DHT22;10785;50.674;17.954;2023-05-23T01:31:15;13.00;99.90
21255;DHT22;10785;50.674;17.954;2023-05-23T01:33:45;12.90;99.90
21255;DHT22;10785;50.674;17.954;2023-05-23T01:36:16;12.70;99.90
21255;DHT22;10785;50.674;17.954;2023-05-23T01:38:45;12.60;99.90
21255;DHT22;10785;50.674;17.954;2023-05-23T01:41:13;12.50;99.90
21255;DHT22;10785;50.674;17.954;2023-05-23T01:43:43;12.40;99.90
21255;DHT22;10785;50.674;17.954;2023-05-23T01:46:13;12.30;99.90
21255;DHT22;10785;50.674;17.954;2023-05-23T01:48:43;12.30;99.90
21255;DHT22;10785;50.674;17.954;2023-05-23T01:51:13;12.20;99.90
21255;DHT22;10785;50.674;17.954;2023-05-23T01:53:42;12.10;99.90
21255;DHT22;10785;50.674;17.954;2023-05-23T01:56:12;12.10;99.90
21255;DHT22;10785;50.674;17.954;2023-05-23T01:58:43;12.10;99.90
21255;DHT22;10785;50.674;17.954;2023-05-23T02:01:11;12.00;99.90
21255;DHT22;10785;50.674;17.954;2023-05-23T02:03:40;11.90;99.90
21255;DHT22;10785;50.674;17.954;2023-05-23T02:06:09;11.90;99.90
21255;DHT22;10785;50.674;17.954;2023-05-23T02:08:38;11.90;99.90
21255;DHT22;10785;50.674;17.954;2023-05-23T02:11:07;11.90;99.90
21255;DHT22;10785;50.674;17.954;2023-05-23T02:13:36;11.90;99.90
21255;DHT22;10785;50.674;17.954;2023-05-23T02:16:07;12.00;99.90
21255;DHT22;10785;50.674;17.954;2023-05-23T02:18:36;12.00;99.90
21255;DHT22;10785;50.674;17.954;2023-05-23T02:21:05;12.00;99.90
21255;DHT22;10785;50.674;17.954;2023-05-23T02:23:37;12.00;99.90
21255;DHT22;10785;50.674;17.954;2023-05-23T02:26:05;12.00;99.90
21255;DHT22;10785;50.674;17.954;2023-05-23T02:28:35;12.00;99.90
21255;DHT22;10785;50.674;17.954;2023-05-23T02:31:04;12.00;99.90
21255;DHT22;10785;50.674;17.954;2023-05-23T02:33:34;12.00;99.90
21255;DHT22;10785;50.674;17.954;2023-05-23T02:36:04;12.00;99.90
21255;DHT22;10785;50.674;17.954;2023-05-23T02:38:33;12.00;99.90
21255;DHT22;10785;50.674;17.954;2023-05-23T02:41:02;12.00;99.90
21255;DHT22;10785;50.674;17.954;2023-05-23T02:43:31;11.90;99.90
21255;DHT22;10785;50.674;17.954;2023-05-23T02:46:01;11.80;99.90
21255;DHT22;10785;50.674;17.954;2023-05-23T02:48:30;11.80;99.90
21255;DHT22;10785;50.674;17.954;2023-05-23T02:51:00;11.70;99.90
21255;DHT22;10785;50.674;17.954;2023-05-23T02:53:29;11.70;99.90
21255;DHT22;10785;50.674;17.954;2023-05-23T02:55:58;11.70;99.90
21255;DHT22;10785;50.674;17.954;2023-05-23T02:58:26;11.80;99.90
21255;DHT22;10785;50.674;17.954;2023-05-23T03:00:56;11.80;99.90
21255;DHT22;10785;50.674;17.954;2023-05-23T03:03:25;11.90;99.90
21255;DHT22;10785;50.674;17.954;2023-05-23T03:05:55;12.00;99.90
21255;DHT22;10785;50.674;17.954;2023-05-23T03:08:25;12.00;99.90
21255;DHT22;10785;50.674;17.954;2023-05-23T03:10:54;12.00;99.90
21255;DHT22;10785;50.674;17.954;2023-05-23T03:13:22;12.10;99.90
21255;DHT22;10785;50.674;17.954;2023-05-23T03:15:51;12.20;99.90
21255;DHT22;10785;50.674;17.954;2023-05-23T03:18:20;12.20;99.90
21255;DHT22;10785;50.674;17.954;2023-05-23T03:20:49;12.50;99.90
21255;DHT22;10785;50.674;17.954;2023-05-23T03:23:21;12.90;99.90
21255;DHT22;10785;50.674;17.954;2023-05-23T03:25:51;13.40;99.90
21255;DHT22;10785;50.674;17.954;2023-05-23T03:28:20;13.90;99.90
21255;DHT22;10785;50.674;17.954;2023-05-23T03:30:51;14.20;99.90
21255;DHT22;10785;50.674;17.954;2023-05-23T03:33:19;14.80;99.90
21255;DHT22;10785;50.674;17.954;2023-05-23T03:35:48;14.90;99.90
21255;DHT22;10785;50.674;17.954;2023-05-23T03:38:17;15.50;99.90
21255;DHT22;10785;50.674;17.954;2023-05-23T03:40:46;15.90;98.50
21255;DHT22;10785;50.674;17.954;2023-05-23T03:43:16;16.10;97.50
21255;DHT22;10785;50.674;17.954;2023-05-23T03:45:45;16.50;95.60
21255;DHT22;10785;50.674;17.954;2023-05-23T03:48:16;16.70;93.70
21255;DHT22;10785;50.674;17.954;2023-05-23T03:50:46;17.10;91.00
21255;DHT22;10785;50.674;17.954;2023-05-23T03:53:15;17.20;89.50
21255;DHT22;10785;50.674;17.954;2023-05-23T03:55:44;17.40;87.10
21255;DHT22;10785;50.674;17.954;2023-05-23T03:58:13;17.60;80.70
21255;DHT22;10785;50.674;17.954;2023-05-23T04:00:46;17.50;80.30
21255;DHT22;10785;50.674;17.954;2023-05-23T04:03:16;17.40;77.60
21255;DHT22;10785;50.674;17.954;2023-05-23T04:05:45;17.70;79.40
21255;DHT22;10785;50.674;17.954;2023-05-23T04:08:14;17.80;71.00
21255;DHT22;10785;50.674;17.954;2023-05-23T04:10:43;18.10;64.00
21255;DHT22;10785;50.674;17.954;2023-05-23T04:13:12;18.40;58.40
21255;DHT22;10785;50.674;17.954;2023-05-23T04:15:42;19.00;45.60
21255;DHT22;10785;50.674;17.954;2023-05-23T04:18:13;19.20;39.70
21255;DHT22;10785;50.674;17.954;2023-05-23T04:20:45;19.60;33.00
21255;DHT22;10785;50.674;17.954;2023-05-23T04:23:14;19.80;27.70
21255;DHT22;10785;50.674;17.954;2023-05-23T04:25:46;19.90;23.70
21255;DHT22;10785;50.674;17.954;2023-05-23T04:28:27;20.10;21.50
21255;DHT22;10785;50.674;17.954;2023-05-23T04:30:59;19.70;23.50
21255;DHT22;10785;50.674;17.954;2023-05-23T04:33:33;20.10;21.30
21255;DHT22;10785;50.674;17.954;2023-05-23T04:36:03;20.60;15.90
21255;DHT22;10785;50.674;17.954;2023-05-23T04:38:32;20.80;12.50
21255;DHT22;10785;50.674;17.954;2023-05-23T04:41:01;20.90;11.80
21255;DHT22;10785;50.674;17.954;2023-05-23T04:43:42;21.70;9.30
21255;DHT22;10785;50.674;17.954;2023-05-23T04:46:17;21.20;7.30
21255;DHT22;10785;50.674;17.954;2023-05-23T04:48:56;21.10;9.40
21255;DHT22;10785;50.674;17.954;2023-05-23T04:51:25;21.50;5.50
21255;DHT22;10785;50.674;17.954;2023-05-23T04:54:00;21.80;4.00
21255;DHT22;10785;50.674;17.954;2023-05-23T04:56:29;21.90;2.80
21255;DHT22;10785;50.674;17.954;2023-05-23T04:58:57;21.80;2.40
21255;DHT22;10785;50.674;17.954;2023-05-23T05:01:28;22.00;1.00
21255;DHT22;10785;50.674;17.954;2023-05-23T05:03:59;21.90;1.50
21255;DHT22;10785;50.674;17.954;2023-05-23T05:06:28;22.00;1.00
21255;DHT22;10785;50.674;17.954;2023-05-23T05:08:57;21.60;2.40
21255;DHT22;10785;50.674;17.954;2023-05-23T05:11:26;21.70;3.70
21255;DHT22;10785;50.674;17.954;2023-05-23T05:13:55;21.80;3.00
21255;DHT22;10785;50.674;17.954;2023-05-23T05:16:24;21.60;3.50
21255;DHT22;10785;50.674;17.954;2023-05-23T05:18:53;21.60;1.80
21255;DHT22;10785;50.674;17.954;2023-05-23T05:21:23;21.80;1.40
21255;DHT22;10785;50.674;17.954;2023-05-23T05:23:52;22.10;1.20
21255;DHT22;10785;50.674;17.954;2023-05-23T05:26:21;22.60;1.00
21255;DHT22;10785;50.674;17.954;2023-05-23T05:28:51;22.60;1.00
21255;DHT22;10785;50.674;17.954;2023-05-23T05:31:20;23.10;1.00
21255;DHT22;10785;50.674;17.954;2023-05-23T05:33:49;22.50;1.00
21255;DHT22;10785;50.674;17.954;2023-05-23T05:36:19;22.30;1.00
21255;DHT22;10785;50.674;17.954;2023-05-23T05:38:50;22.20;1.00
21255;DHT22;10785;50.674;17.954;2023-05-23T05:41:20;21.90;1.00
21255;DHT22;10785;50.674;17.954;2023-05-23T05:43:52;21.90;1.00
21255;DHT22;10785;50.674;17.954;2023-05-23T05:46:21;21.90;1.00
21255;DHT22;10785;50.674;17.954;2023-05-23T05:48:50;21.60;1.60
21255;DHT22;10785;50.674;17.954;2023-05-23T05:51:21;21.20;4.10
21255;DHT22;10785;50.674;17.954;2023-05-23T05:53:51;20.80;10.70
21255;DHT22;10785;50.674;17.954;2023-05-23T05:56:20;20.50;12.00
21255;DHT22;10785;50.674;17.954;2023-05-23T05:58:49;20.40;14.80
21255;DHT22;10785;50.674;17.954;2023-05-23T06:01:18;20.50;16.30
21255;DHT22;10785;50.674;17.954;2023-05-23T06:03:46;20.70;13.60
21255;DHT22;10785;50.674;17.954;2023-05-23T06:06:17;20.90;13.70
21255;DHT22;10785;50.674;17.954;2023-05-23T06:08:47;20.80;13.50
21255;DHT22;10785;50.674;17.954;2023-05-23T06:11:18;21.00;14.00
21255;DHT22;10785;50.674;17.954;2023-05-23T06:13:46;21.70;10.10
21255;DHT22;10785;50.674;17.954;2023-05-23T06:16:15;22.60;5.70
21255;DHT22;10785;50.674;17.954;2023-05-23T06:18:44;23.00;1.80
21255;DHT22;10785;50.674;17.954;2023-05-23T06:21:14;23.20;1.00
21255;DHT22;10785;50.674;17.954;2023-05-23T06:23:48;23.40;1.00
21255;DHT22;10785;50.674;17.954;2023-05-23T06:26:18;23.50;1.00
21255;DHT22;10785;50.674;17.954;2023-05-23T06:28:47;23.70;1.00
21255;DHT22;10785;50.674;17.954;2023-05-23T06:31:16;23.40;1.00
21255;DHT22;10785;50.674;17.954;2023-05-23T06:33:44;23.50;1.00
21255;DHT22;10785;50.674;17.954;2023-05-23T06:36:13;23.40;1.00
21255;DHT22;10785;50.674;17.954;2023-05-23T06:38:42;23.80;1.00
21255;DHT22;10785;50.674;17.954;2023-05-23T06:41:10;24.30;1.00
21255;DHT22;10785;50.674;17.954;2023-05-23T06:43:41;24.60;1.00
21255;DHT22;10785;50.674;17.954;2023-05-23T06:46:15;25.20;1.00
21255;DHT22;10785;50.674;17.954;2023-05-23T06:48:44;25.50;1.00
21255;DHT22;10785;50.674;17.954;2023-05-23T06:51:13;25.00;1.00
21255;DHT22;10785;50.674;17.954;2023-05-23T06:53:42;26.60;1.00
21255;DHT22;10785;50.674;17.954;2023-05-23T06:56:11;27.00;1.00
21255;DHT22;10785;50.674;17.954;2023-05-23T06:58:52;27.60;1.00
21255;DHT22;10785;50.674;17.954;2023-05-23T07:01:21;26.80;1.00
21255;DHT22;10785;50.674;17.954;2023-05-23T07:03:50;26.60;1.00
21255;DHT22;10785;50.674;17.954;2023-05-23T07:06:20;26.00;1.00
21255;DHT22;10785;50.674;17.954;2023-05-23T07:08:50;25.70;1.00
21255;DHT22;10785;50.674;17.954;2023-05-23T07:11:21;26.00;1.00
21255;DHT22;10785;50.674;17.954;2023-05-23T07:13:57;25.70;1.00
21255;DHT22;10785;50.674;17.954;2023-05-23T07:16:36;25.80;1.00
21255;DHT22;10785;50.674;17.954;2023-05-23T07:19:07;26.40;1.00
21255;DHT22;10785;50.674;17.954;2023-05-23T07:21:42;26.20;1.00
21255;DHT22;10785;50.674;17.954;2023-05-23T07:24:13;26.00;1.00
21255;DHT22;10785;50.674;17.954;2023-05-23T07:26:41;25.90;1.00
21255;DHT22;10785;50.674;17.954;2023-05-23T07:29:12;26.00;1.00
21255;DHT22;10785;50.674;17.954;2023-05-23T07:31:42;26.00;1.00
21255;DHT22;10785;50.674;17.954;2023-05-23T07:34:13;25.80;1.00
21255;DHT22;10785;50.674;17.954;2023-05-23T07:36:54;26.20;1.00
21255;DHT22;10785;50.674;17.954;2023-05-23T07:39:25;25.80;1.00
21255;DHT22;10785;50.674;17.954;2023-05-23T07:41:56;25.40;1.00
21255;DHT22;10785;50.674;17.954;2023-05-23T07:44:27;24.70;1.00
21255;DHT22;10785;50.674;17.954;2023-05-23T07:46:56;24.00;1.00
21255;DHT22;10785;50.674;17.954;2023-05-23T07:49:25;24.20;1.00
21255;DHT22;10785;50.674;17.954;2023-05-23T07:51:54;24.00;1.00
21255;DHT22;10785;50.674;17.954;2023-05-23T07:54:24;24.00;1.00
21255;DHT22;10785;50.674;17.954;2023-05-23T07:56:57;24.10;1.00
21255;DHT22;10785;50.674;17.954;2023-05-23T07:59:28;23.90;1.00
21255;DHT22;10785;50.674;17.954;2023-05-23T08:01:57;23.60;1.00
21255;DHT22;10785;50.674;17.954;2023-05-23T08:04:27;23.70;1.00
21255;DHT22;10785;50.674;17.954;2023-05-23T08:06:56;23.40;1.00
21255;DHT22;10785;50.674;17.954;2023-05-23T08:09:35;23.80;1.00
21255;DHT22;10785;50.674;17.954;2023-05-23T08:12:05;23.60;1.80
21255;DHT22;10785;50.674;17.954;2023-05-23T08:14:35;23.50;1.00
21255;DHT22;10785;50.674;17.954;2023-05-23T08:17:31;23.60;1.00
21255;DHT22;10785;50.674;17.954;2023-05-23T08:20:01;23.50;1.00
21255;DHT22;10785;50.674;17.954;2023-05-23T08:22:32;22.90;6.10
21255;DHT22;10785;50.674;17.954;2023-05-23T08:25:03;23.20;5.00
21255;DHT22;10785;50.674;17.954;2023-05-23T08:27:35;23.10;2.60
21255;DHT22;10785;50.674;17.954;2023-05-23T08:30:16;23.20;2.30
21255;DHT22;10785;50.674;17.954;2023-05-23T08:32:45;23.50;1.00
21255;DHT22;10785;50.674;17.954;2023-05-23T08:35:13;23.60;1.00
21255;DHT22;10785;50.674;17.954;2023-05-23T08:37:42;23.70;1.00
21255;DHT22;10785;50.674;17.954;2023-05-23T08:40:13;23.90;1.00
21255;DHT22;10785;50.674;17.954;2023-05-23T08:42:53;23.80;1.00
21255;DHT22;10785;50.674;17.954;2023-05-23T08:45:24;24.00;1.00
21255;DHT22;10785;50.674;17.954;2023-05-23T09:13:47;25.10;1.00
21255;DHT22;10785;50.674;17.954;2023-05-23T09:16:18;25.20;1.00
21255;DHT22;10785;50.674;17.954;2023-05-23T09:18:50;25.30;1.00
21255;DHT22;10785;50.674;17.954;2023-05-23T09:21:23;25.00;1.00
21255;DHT22;10785;50.674;17.954;2023-05-23T09:24:08;25.00;1.00
21255;DHT22;10785;50.674;17.954;2023-05-23T09:26:37;25.20;1.00
21255;DHT22;10785;50.674;17.954;2023-05-23T09:29:12;25.40;1.00
21255;DHT22;10785;50.674;17.954;2023-05-23T09:31:43;25.20;1.00
21255;DHT22;10785;50.674;17.954;2023-05-23T09:34:11;25.20;1.00
21255;DHT22;10785;50.674;17.954;2023-05-23T09:36:40;25.10;1.00
21255;DHT22;10785;50.674;17.954;2023-05-23T09:39:11;24.80;1.00
21255;DHT22;10785;50.674;17.954;2023-05-23T09:41:40;25.00;1.00
21255;DHT22;10785;50.674;17.954;2023-05-23T09:44:09;25.00;1.00
21255;DHT22;10785;50.674;17.954;2023-05-23T09:46:39;25.20;1.00
21255;DHT22;10785;50.674;17.954;2023-05-23T09:49:16;25.20;1.00
21255;DHT22;10785;50.674;17.954;2023-05-23T09:51:56;25.60;1.00
21255;DHT22;10785;50.674;17.954;2023-05-23T09:54:25;25.70;1.00
21255;DHT22;10785;50.674;17.954;2023-05-23T09:56:55;25.70;1.00
21255;DHT22;10785;50.674;17.954;2023-05-23T09:59:28;25.70;1.00
21255;DHT22;10785;50.674;17.954;2023-05-23T10:02:02;25.70;1.00
21255;DHT22;10785;50.674;17.954;2023-05-23T10:04:34;25.60;1.00
21255;DHT22;10785;50.674;17.954;2023-05-23T10:07:09;25.50;1.00
21255;DHT22;10785;50.674;17.954;2023-05-23T10:09:41;25.20;1.00
21255;DHT22;10785;50.674;17.954;2023-05-23T10:15:10;24.30;1.00
21255;DHT22;10785;50.674;17.954;2023-05-23T10:17:51;24.00;1.00
21255;DHT22;10785;50.674;17.954;2023-05-23T10:20:24;23.80;1.00
21255;DHT22;10785;50.674;17.954;2023-05-23T10:22:54;23.60;1.00
21255;DHT22;10785;50.674;17.954;2023-05-23T10:25:23;23.40;1.00
21255;DHT22;10785;50.674;17.954;2023-05-23T10:28:06;22.90;1.00
21255;DHT22;10785;50.674;17.954;2023-05-23T10:30:36;22.90;1.00
21255;DHT22;10785;50.674;17.954;2023-05-23T10:33:08;22.90;1.00
21255;DHT22;10785;50.674;17.954;2023-05-23T10:35:44;22.90;1.00
21255;DHT22;10785;50.674;17.954;2023-05-23T10:38:27;22.90;4.40
21255;DHT22;10785;50.674;17.954;2023-05-23T10:41:05;22.60;21.50
21255;DHT22;10785;50.674;17.954;2023-05-23T10:43:42;21.90;55.20
21255;DHT22;10785;50.674;17.954;2023-05-23T10:46:12;21.60;79.40
21255;DHT22;10785;50.674;17.954;2023-05-23T10:48:43;21.30;88.50
21255;DHT22;10785;50.674;17.954;2023-05-23T10:51:13;21.20;91.20
21255;DHT22;10785;50.674;17.954;2023-05-23T10:53:43;21.10;94.60
21255;DHT22;10785;50.674;17.954;2023-05-23T10:56:19;20.80;97.30
21255;DHT22;10785;50.674;17.954;2023-05-23T10:58:51;20.50;99.90
21255;DHT22;10785;50.674;17.954;2023-05-23T11:01:38;20.10;99.90
21255;DHT22;10785;50.674;17.954;2023-05-23T11:04:11;19.60;99.90
21255;DHT22;10785;50.674;17.954;2023-05-23T11:06:41;19.10;99.90
21255;DHT22;10785;50.674;17.954;2023-05-23T11:09:12;18.70;99.90
21255;DHT22;10785;50.674;17.954;2023-05-23T11:12:00;18.40;99.90
21255;DHT22;10785;50.674;17.954;2023-05-23T11:17:30;18.20;99.90
21255;DHT22;10785;50.674;17.954;2023-05-23T11:20:02;18.10;99.90
21255;DHT22;10785;50.674;17.954;2023-05-23T11:22:35;18.00;99.90
21255;DHT22;10785;50.674;17.954;2023-05-23T11:25:06;18.10;99.90
21255;DHT22;10785;50.674;17.954;2023-05-23T11:27:36;18.10;99.90
21255;DHT22;10785;50.674;17.954;2023-05-23T11:30:07;18.20;99.90
21255;DHT22;10785;50.674;17.954;2023-05-23T11:32:36;18.30;99.90
21255;DHT22;10785;50.674;17.954;2023-05-23T12:24:16;17.30;1.00
21255;DHT22;10785;50.674;17.954;2023-05-23T12:26:46;17.80;1.00
21255;DHT22;10785;50.674;17.954;2023-05-23T12:29:15;18.20;99.90
21255;DHT22;10785;50.674;17.954;2023-05-23T12:31:48;18.40;99.90
21255;DHT22;10785;50.674;17.954;2023-05-23T12:34:19;18.70;99.90
21255;DHT22;10785;50.674;17.954;2023-05-23T12:36:49;19.10;99.90
21255;DHT22;10785;50.674;17.954;2023-05-23T12:39:35;19.70;99.90
21255;DHT22;10785;50.674;17.954;2023-05-23T12:42:07;19.90;99.90
21255;DHT22;10785;50.674;17.954;2023-05-23T12:44:39;19.90;99.90
21255;DHT22;10785;50.674;17.954;2023-05-23T12:47:08;20.10;99.90
21255;DHT22;10785;50.674;17.954;2023-05-23T12:49:37;20.40;99.90
21255;DHT22;10785;50.674;17.954;2023-05-23T12:52:06;20.50;99.90
21255;DHT22;10785;50.674;17.954;2023-05-23T12:54:36;20.60;99.90
21255;DHT22;10785;50.674;17.954;2023-05-23T12:57:05;20.90;99.90
21255;DHT22;10785;50.674;17.954;2023-05-23T12:59:33;20.60;99.90
21255;DHT22;10785;50.674;17.954;2023-05-23T14:03:36;21.30;99.90
21255;DHT22;10785;50.674;17.954;2023-05-23T14:06:05;21.30;99.90
21255;DHT22;10785;50.674;17.954;2023-05-23T14:08:34;21.10;99.90
21255;DHT22;10785;50.674;17.954;2023-05-23T14:11:03;21.40;99.90
21255;DHT22;10785;50.674;17.954;2023-05-23T14:13:31;21.40;99.90
21255;DHT22;10785;50.674;17.954;2023-05-23T14:16:00;21.40;99.90
21255;DHT22;10785;50.674;17.954;2023-05-23T14:18:29;21.10;99.90
21255;DHT22;10785;50.674;17.954;2023-05-23T14:20:59;20.90;99.90
21255;DHT22;10785;50.674;17.954;2023-05-23T14:23:27;20.70;99.90
21255;DHT22;10785;50.674;17.954;2023-05-23T14:25:57;20.40;99.90
21255;DHT22;10785;50.674;17.954;2023-05-23T14:28:25;20.30;99.90
21255;DHT22;10785;50.674;17.954;2023-05-23T14:30:54;20.30;99.90
21255;DHT22;10785;50.674;17.954;2023-05-23T14:33:23;20.30;99.90
21255;DHT22;10785;50.674;17.954;2023-05-23T14:35:52;20.20;99.90
21255;DHT22;10785;50.674;17.954;2023-05-23T14:38:25;20.20;99.90
21255;DHT22;10785;50.674;17.954;2023-05-23T14:41:12;20.40;99.90
21255;DHT22;10785;50.674;17.954;2023-05-23T14:43:41;20.70;99.90
21255;DHT22;10785;50.674;17.954;2023-05-23T14:46:16;20.80;99.90
21255;DHT22;10785;50.674;17.954;2023-05-23T14:48:56;21.00;99.90
21255;DHT22;10785;50.674;17.954;2023-05-23T14:51:25;21.10;99.90
21255;DHT22;10785;50.674;17.954;2023-05-23T14:54:14;21.10;99.90
21255;DHT22;10785;50.674;17.954;2023-05-23T14:57:08;21.00;99.90
21255;DHT22;10785;50.674;17.954;2023-05-23T14:59:37;21.20;99.90
21255;DHT22;10785;50.674;17.954;2023-05-23T15:02:15;21.20;99.90
21255;DHT22;10785;50.674;17.954;2023-05-23T15:04:55;21.10;99.90
21255;DHT22;10785;50.674;17.954;2023-05-23T15:07:24;20.90;99.90
21255;DHT22;10785;50.674;17.954;2023-05-23T15:09:54;20.80;99.90
21255;DHT22;10785;50.674;17.954;2023-05-23T15:12:22;20.70;99.90
21255;DHT22;10785;50.674;17.954;2023-05-23T15:14:51;20.80;99.90
21255;DHT22;10785;50.674;17.954;2023-05-23T15:17:20;20.80;99.90
21255;DHT22;10785;50.674;17.954;2023-05-23T15:19:52;20.80;99.90
21255;DHT22;10785;50.674;17.954;2023-05-23T15:22:23;20.70;99.90
21255;DHT22;10785;50.674;17.954;2023-05-23T15:24:57;20.80;99.90
21255;DHT22;10785;50.674;17.954;2023-05-23T15:27:26;20.80;99.90
21255;DHT22;10785;50.674;17.954;2023-05-23T15:29:55;20.70;99.90
21255;DHT22;10785;50.674;17.954;2023-05-23T15:32:24;20.70;99.90
21255;DHT22;10785;50.674;17.954;2023-05-23T15:34:52;20.70;99.90
21255;DHT22;10785;50.674;17.954;2023-05-23T15:37:21;20.70;99.90
21255;DHT22;10785;50.674;17.954;2023-05-23T15:43:03;20.40;99.90
21255;DHT22;10785;50.674;17.954;2023-05-23T15:45:35;20.30;99.90
21255;DHT22;10785;50.674;17.954;2023-05-23T15:50:53;20.40;99.90
21255;DHT22;10785;50.674;17.954;2023-05-23T15:53:21;20.40;99.90
21255;DHT22;10785;50.674;17.954;2023-05-23T15:55:50;20.40;99.90
21255;DHT22;10785;50.674;17.954;2023-05-23T15:58:20;20.30;99.90
21255;DHT22;10785;50.674;17.954;2023-05-23T16:00:49;20.20;99.90
21255;DHT22;10785;50.674;17.954;2023-05-23T16:03:18;20.00;99.90
21255;DHT22;10785;50.674;17.954;2023-05-23T16:05:46;19.90;99.90
21255;DHT22;10785;50.674;17.954;2023-05-23T16:08:15;19.90;99.90
21255;DHT22;10785;50.674;17.954;2023-05-23T16:10:44;19.80;99.90
21255;DHT22;10785;50.674;17.954;2023-05-23T16:13:12;19.70;99.90
21255;DHT22;10785;50.674;17.954;2023-05-23T16:15:45;19.70;99.90
21255;DHT22;10785;50.674;17.954;2023-05-23T16:18:14;19.70;99.90
21255;DHT22;10785;50.674;17.954;2023-05-23T16:20:42;19.80;99.90
21255;DHT22;10785;50.674;17.954;2023-05-23T16:23:11;19.80;99.90
21255;DHT22;10785;50.674;17.954;2023-05-23T16:25:40;19.70;99.90
21255;DHT22;10785;50.674;17.954;2023-05-23T16:28:09;19.70;99.90
21255;DHT22;10785;50.674;17.954;2023-05-23T16:30:38;19.70;99.90
21255;DHT22;10785;50.674;17.954;2023-05-23T16:33:08;19.80;99.90
21255;DHT22;10785;50.674;17.954;2023-05-23T16:35:36;19.80;99.90
21255;DHT22;10785;50.674;17.954;2023-05-23T16:38:05;19.80;99.90
21255;DHT22;10785;50.674;17.954;2023-05-23T16:40:34;19.70;99.90
21255;DHT22;10785;50.674;17.954;2023-05-23T16:43:03;19.60;99.90
21255;DHT22;10785;50.674;17.954;2023-05-23T16:45:31;19.60;99.90
21255;DHT22;10785;50.674;17.954;2023-05-23T16:48:00;19.60;99.90
21255;DHT22;10785;50.674;17.954;2023-05-23T16:50:30;19.70;99.90
21255;DHT22;10785;50.674;17.954;2023-05-23T16:52:59;19.70;99.90
21255;DHT22;10785;50.674;17.954;2023-05-23T16:55:27;19.60;99.90
21255;DHT22;10785;50.674;17.954;2023-05-23T16:57:56;19.50;99.90
21255;DHT22;10785;50.674;17.954;2023-05-23T17:00:25;19.40;99.90
21255;DHT22;10785;50.674;17.954;2023-05-23T17:02:54;19.40;99.90
21255;DHT22;10785;50.674;17.954;2023-05-23T17:05:24;19.30;99.90
21255;DHT22;10785;50.674;17.954;2023-05-23T17:07:54;19.30;99.90
21255;DHT22;10785;50.674;17.954;2023-05-23T17:10:23;19.30;99.90
21255;DHT22;10785;50.674;17.954;2023-05-23T17:12:52;19.30;99.90
21255;DHT22;10785;50.674;17.954;2023-05-23T17:15:21;19.30;99.90
21255;DHT22;10785;50.674;17.954;2023-05-23T17:17:50;19.30;99.90
21255;DHT22;10785;50.674;17.954;2023-05-23T17:20:21;19.30;99.90
21255;DHT22;10785;50.674;17.954;2023-05-23T17:22:54;19.20;99.90
21255;DHT22;10785;50.674;17.954;2023-05-23T17:25:23;19.20;99.90
21255;DHT22;10785;50.674;17.954;2023-05-23T17:27:52;19.20;99.90
21255;DHT22;10785;50.674;17.954;2023-05-23T17:40:10;19.20;99.90
21255;DHT22;10785;50.674;17.954;2023-05-23T17:42:40;19.20;99.90
21255;DHT22;10785;50.674;17.954;2023-05-23T17:45:11;19.20;99.90
21255;DHT22;10785;50.674;17.954;2023-05-23T17:47:40;19.20;99.90
21255;DHT22;10785;50.674;17.954;2023-05-23T17:50:10;19.20;99.90
21255;DHT22;10785;50.674;17.954;2023-05-23T17:52:39;19.20;99.90
21255;DHT22;10785;50.674;17.954;2023-05-23T17:59:04;19.10;99.90
21255;DHT22;10785;50.674;17.954;2023-05-23T18:01:33;19.10;99.90
21255;DHT22;10785;50.674;17.954;2023-05-23T18:04:02;19.00;99.90
21255;DHT22;10785;50.674;17.954;2023-05-23T18:06:31;19.00;99.90
21255;DHT22;10785;50.674;17.954;2023-05-23T18:09:00;18.90;99.90
21255;DHT22;10785;50.674;17.954;2023-05-23T18:11:29;18.90;99.90
21255;DHT22;10785;50.674;17.954;2023-05-23T18:13:58;18.80;99.90
21255;DHT22;10785;50.674;17.954;2023-05-23T18:16:28;18.80;99.90
21255;DHT22;10785;50.674;17.954;2023-05-23T18:18:57;18.70;99.90
21255;DHT22;10785;50.674;17.954;2023-05-23T18:21:26;18.60;99.90
21255;DHT22;10785;50.674;17.954;2023-05-23T18:24:06;18.60;99.90
21255;DHT22;10785;50.674;17.954;2023-05-23T18:26:35;18.50;99.90
21255;DHT22;10785;50.674;17.954;2023-05-23T18:29:08;18.50;99.90